Latest Weather Observations for Laverton

IDV60901

Issued at 4:41 pm EST Sunday 24 July 2016 (issued every 10 minutes, with the page automatically refreshed every 10 minutes)

About weather observations | Map of Melbourne area stations | Latest observations for Melbourne area | Other Formats
Station Details ID: 087031 Name: LAVERTON RAAF Lat: -37.86 Lon: 144.76 Height: 20.1 m
Data from the previous 72 hours. | See also: Recent months at Laverton
Date/Time
EST
Temp
°C
App
Temp
°C
Dew
Point
°C
Rel
Hum
%
Delta-T
°C
Wind Press
QNH
hPa
Press
MSL
hPa
Rain since
9am
mm
Dir  Spd
km/h
Gust
km/h
Spd
kts
Gust
kts
24/04:30pm 9.0 4.2 5.7 80 1.5 NNE 20 28 11 15 1005.3 1005.4 0.2
24/04:00pm 9.8 5.1 5.2 73 2.1 NNE 19 32 10 17 1005.5 1005.6 0.2
24/03:30pm 10.8 6.0 4.5 65 2.8 N 19 30 10 16 1005.7 1005.8 0.0
24/03:00pm 11.0 6.0 4.5 64 2.9 NNW 20 30 11 16 1006.1 1006.2 0.0
24/02:30pm 10.7 4.1 4.2 64 2.9 NNW 28 41 15 22 1006.2 1006.3 0.0
24/02:00pm 11.1 4.1 4.3 63 3.1 NNW 30 46 16 25 1006.4 1006.5 0.0
24/01:30pm 11.4 3.9 4.4 62 3.2 NNW 33 50 18 27 1006.8 1006.9 0.0
24/01:00pm 11.5 4.0 4.3 61 3.2 NNW 33 48 18 26 1007.1 1007.2 0.0
24/12:53pm 11.5 4.9 4.0 60 3.4 NNW 28 48 15 26 1007.2 1007.3 0.0
24/12:30pm 11.0 4.8 4.2 63 3.0 N 26 41 14 22 1007.6 1007.7 0.0
24/12:00pm 10.6 2.2 3.6 62 3.1 NNW 37 56 20 30 1008.1 1008.2 0.0
24/11:58am 10.7 2.7 3.7 62 3.1 NNW 35 56 19 30 1008.2 1008.3 0.0
24/11:30am 10.7 2.8 4.2 64 2.9 NNW 35 46 19 25 1008.7 1008.8 0.0
24/11:08am 10.3 3.2 3.8 64 2.9 NNW 30 48 16 26 1009.2 1009.3 0.0
24/11:00am 10.2 2.8 3.9 65 2.8 NNW 32 43 17 23 1009.4 1009.5 0.0
24/10:44am 10.1 3.5 4.0 66 2.7 NNW 28 46 15 25 1009.6 1009.7 0.0
24/10:30am 9.5 2.9 4.3 70 2.3 NNW 28 44 15 24 1009.8 1009.9 0.0
24/10:00am 9.0 4.0 4.4 73 2.0 N 20 32 11 17 1009.8 1009.9 0.0
24/09:30am 8.2 4.0 3.9 74 1.9 N 15 22 8 12 1010.0 1010.1 0.0
24/09:00am 6.4 2.1 3.0 79 1.4 N 15 20 8 11 1010.3 1010.4 1.0
24/08:30am 5.5 1.1 2.7 82 1.1 N 15 22 8 12 1010.4 1010.5 1.0
24/08:00am 4.5 0.0 1.9 83 1.0 N 15 20 8 11 1010.4 1010.5 1.0
24/07:30am 3.9 -0.7 1.8 86 0.8 N 15 22 8 12 1010.5 1010.6 1.0
24/07:00am 3.5 -1.1 1.7 88 0.7 N 15 20 8 11 1010.7 1010.8 1.0
24/06:30am 3.7 -0.5 1.7 87 0.8 N 13 19 7 10 1010.6 1010.7 1.0
24/06:00am 3.4 -1.2 1.8 89 0.6 NNE 15 19 8 10 1010.6 1010.7 1.0
24/05:30am 3.3 -0.5 1.5 88 0.7 NNE 11 13 6 7 1010.8 1010.9 1.0
24/05:00am 3.7 -0.1 1.6 86 0.8 NNE 11 17 6 9 1011.1 1011.2 1.0
24/04:30am 4.5 1.1 1.9 83 1.0 N 9 15 5 8 1011.5 1011.6 1.0
24/04:00am 4.3 -0.3 1.8 84 1.0 N 15 20 8 11 1012.0 1012.0 1.0
24/03:30am 3.2 -0.7 1.3 87 0.7 NNW 11 15 6 8 1012.2 1012.2 1.0
24/03:00am 4.2 0.0 1.7 84 1.0 NNW 13 17 7 9 1012.2 1012.2 1.0
24/02:30am 3.7 -0.5 1.6 86 0.8 NNW 13 15 7 8 1012.3 1012.3 1.0
24/02:00am 4.4 -0.5 2.1 85 0.9 NNW 17 22 9 12 1012.3 1012.3 1.0
24/01:30am 3.3 -0.1 1.7 89 0.6 NNW 9 13 5 7 1012.2 1012.2 1.0
24/01:00am 3.4 -0.7 2.2 92 0.5 NW 13 15 7 8 1012.4 1012.4 1.0
24/12:30am 3.9 0.6 2.3 89 0.6 NNW 9 13 5 7 1012.6 1012.6 1.0
24/12:00am 4.5 1.6 2.7 88 0.7 NNW 7 11 4 6 1012.8 1012.8 1.0
 
Date/Time
EST
Temp
°C
App
Temp
°C
Dew
Point
°C
Rel
Hum
%
Delta-T
°C
Wind Press
QNH
hPa
Press
MSL
hPa
Rain since
9am
mm
Dir  Spd
km/h
Gust
km/h
Spd
kts
Gust
kts
23/11:30pm 4.8 1.2 3.0 88 0.7 NW 11 13 6 7 1012.9 1012.9 1.0
23/11:00pm 5.5 2.0 3.5 87 0.8 NW 11 17 6 9 1013.1 1013.1 1.0
23/10:30pm 5.7 2.7 3.9 88 0.8 NW 9 11 5 6 1013.2 1013.2 1.0
23/10:00pm 6.2 2.8 3.9 85 1.0 WNW 11 15 6 8 1013.2 1013.2 1.0
23/09:30pm 6.1 2.3 4.1 87 0.9 WNW 13 17 7 9 1013.0 1013.0 1.0
23/09:00pm 6.8 2.7 4.5 85 1.0 NW 15 19 8 10 1013.0 1013.0 1.0
23/08:30pm 7.2 2.4 4.5 83 1.2 WNW 19 26 10 14 1012.8 1012.8 1.0
23/08:00pm 7.1 2.6 4.4 83 1.2 WNW 17 24 9 13 1012.4 1012.4 1.0
23/07:30pm 6.9 1.8 3.9 81 1.3 WNW 20 28 11 15 1012.3 1012.3 1.0
23/07:00pm 7.0 1.1 4.0 81 1.3 W 24 35 13 19 1011.9 1011.9 1.0
23/06:47pm 7.2 0.2 4.0 80 1.4 W 30 41 16 22 1011.9 1011.9 1.0
23/06:30pm 7.9 3.4 4.3 78 1.6 W 17 22 9 12 1011.5 1011.6 1.0
23/06:00pm 7.8 2.9 4.2 78 1.6 W 19 30 10 16 1011.1 1011.2 1.0
23/05:30pm 8.1 3.2 3.9 75 1.8 W 19 24 10 13 1010.7 1010.8 1.0
23/05:00pm 8.0 3.6 4.8 80 1.4 W 17 26 9 14 1010.2 1010.3 1.0
23/04:30pm 8.2 1.7 4.6 78 1.6 W 28 39 15 21 1009.7 1009.8 1.0
23/04:00pm 7.7 2.4 5.0 83 1.2 W 22 32 12 17 1009.6 1009.7 1.0
23/03:59pm 7.6 2.3 4.9 83 1.2 W 22 32 12 17 1009.6 1009.7 1.0
23/03:39pm 7.6 1.9 4.9 83 1.2 WSW 24 48 13 26 1009.7 1009.8 0.6
23/03:30pm 8.9 3.1 4.3 73 2.0 W 24 37 13 20 1009.1 1009.2 0.4
23/03:00pm 8.1 0.7 4.1 76 1.7 W 32 50 17 27 1008.7 1008.8 0.4
23/02:43pm 9.1 2.5 4.1 71 2.2 W 28 50 15 27 1008.3 1008.4 0.4
23/02:30pm 9.7 2.7 3.9 67 2.5 W 30 43 16 23 1007.9 1008.0 0.4
23/02:13pm 9.0 1.6 4.0 71 2.2 W 32 50 17 27 1007.8 1007.9 0.4
23/02:00pm 7.9 -0.6 5.2 83 1.2 W 39 61 21 33 1007.8 1007.9 0.4
23/01:53pm 8.3 -0.7 4.5 77 1.7 W 41 61 22 33 1007.8 1007.9 0.2
23/01:30pm 9.3 0.9 3.7 68 2.4 WSW 37 56 20 30 1007.3 1007.4 0.0
23/01:28pm 9.4 0.5 3.2 65 2.7 WSW 39 56 21 30 1007.3 1007.4 0.0
23/01:24pm 10.0 1.0 2.4 59 3.2 W 39 56 21 30 1007.2 1007.3 0.0
23/01:00pm 10.4 2.5 2.5 58 3.4 W 33 56 18 30 1006.9 1007.0 0.0
23/12:53pm 9.8 1.5 2.2 59 3.2 W 35 56 19 30 1007.0 1007.1 0.0
23/12:30pm 10.0 2.2 2.6 60 3.2 W 33 44 18 24 1007.1 1007.2 0.0
23/12:01pm 9.9 2.3 2.7 61 3.1 W 32 50 17 27 1007.1 1007.2 0.0
23/12:00pm 9.8 1.9 2.4 60 3.1 W 33 50 18 27 1007.0 1007.1 0.0
23/11:51am 9.6 2.7 2.5 61 3.0 W 28 46 15 25 1007.0 1007.1 0.0
23/11:30am 9.0 2.9 3.0 66 2.6 W 24 35 13 19 1007.2 1007.3 0.0
23/11:03am 8.2 1.3 2.4 67 2.4 W 28 50 15 27 1007.1 1007.2 0.0
23/11:00am 8.4 2.4 3.1 69 2.3 W 24 37 13 20 1007.2 1007.3 0.0
23/10:39am 8.0 0.3 2.5 68 2.3 WSW 32 50 17 27 1007.0 1007.1 0.0
23/10:30am 8.4 0.0 1.3 61 2.9 WSW 35 50 19 27 1006.7 1006.8 0.0
23/10:21am 9.0 1.9 1.4 59 3.1 WSW 28 46 15 25 1006.3 1006.4 0.0
23/10:00am 8.6 1.1 1.1 59 3.1 W 30 43 16 23 1005.9 1006.0 0.0
23/09:43am 8.5 1.0 1.0 59 3.0 W 30 48 16 26 1005.6 1005.7 0.0
23/09:30am 8.6 2.3 1.7 62 2.8 W 24 35 13 19 1005.2 1005.3 0.0
23/09:00am 7.9 1.7 2.0 66 2.4 W 24 37 13 20 1004.5 1004.6 7.0
23/08:30am 7.4 0.8 1.9 68 2.3 W 26 37 14 20 1003.8 1003.9 7.0
23/08:13am 7.4 -0.1 1.5 66 2.4 W 30 48 16 26 1003.4 1003.5 7.0
23/08:00am 7.1 1.7 2.6 73 1.9 W 20 30 11 16 1003.3 1003.4 7.0
23/07:30am 6.7 1.2 4.0 83 1.2 W 22 33 12 18 1002.6 1002.7 7.0
23/07:08am 6.6 1.7 4.9 89 0.7 WNW 20 28 11 15 1002.0 1002.1 7.0
23/07:00am 6.6 1.3 5.1 90 0.7 W 22 41 12 22 1001.7 1001.8 7.0
23/06:52am 6.9 0.5 5.1 88 0.8 W 28 41 15 22 1002.1 1002.2 6.8
23/06:30am 7.3 0.8 4.6 83 1.2 W 28 41 15 22 1001.2 1001.3 6.6
23/06:00am 7.6 1.1 4.9 83 1.2 W 28 43 15 23 1000.2 1000.3 6.6
23/05:31am 8.0 0.6 4.2 77 1.7 W 32 50 17 27 999.2 999.3 6.6
23/05:30am 8.0 0.5 4.2 77 1.7 W 33 50 18 27 999.2 999.3 6.6
23/05:19am 8.1 1.6 4.5 78 1.6 W 28 52 15 28 998.9 998.9 6.6
23/05:00am 8.0 1.5 4.8 80 1.4 W 28 39 15 21 998.3 998.3 6.6
23/04:30am 8.2 1.8 5.0 80 1.4 W 28 37 15 20 997.8 997.8 6.6
23/04:00am 8.4 2.8 5.5 82 1.3 W 24 33 13 18 997.2 997.2 6.6
23/03:30am 8.1 1.8 5.6 84 1.1 W 28 44 15 24 996.7 996.7 6.6
23/03:00am 8.5 0.7 5.1 79 1.5 W 35 54 19 29 996.0 996.0 6.6
23/02:30am 9.0 0.4 4.8 75 1.9 W 39 57 21 31 995.2 995.2 6.6
23/02:14am 9.1 1.1 5.5 78 1.6 WNW 37 56 20 30 994.8 994.8 6.6
23/02:00am 9.4 1.2 4.8 73 2.1 WNW 37 54 20 29 993.9 993.9 6.6
23/01:30am 8.5 0.6 4.1 74 1.9 NW 35 44 19 24 993.1 993.1 6.6
23/01:00am 8.8 0.2 4.6 75 1.9 NW 39 50 21 27 993.0 993.0 6.6
23/12:30am 9.3 4.2 6.2 81 1.4 NW 22 48 12 26 993.5 993.5 6.6
23/12:00am 8.1 2.6 6.1 87 0.9 NW 24 35 13 19 993.3 993.3 6.6
 
Date/Time
EST
Temp
°C
App
Temp
°C
Dew
Point
°C
Rel
Hum
%
Delta-T
°C
Wind Press
QNH
hPa
Press
MSL
hPa
Rain since
9am
mm
Dir  Spd
km/h
Gust
km/h
Spd
kts
Gust
kts
22/11:38pm 8.1 1.1 6.1 87 0.9 NW 32 39 17 21 993.2 993.2 6.6
22/11:30pm 8.3 1.3 6.1 86 1.0 WNW 32 43 17 23 993.2 993.2 6.4
22/11:19pm 8.8 3.1 6.9 88 0.9 W 26 56 14 30 993.7 993.7 6.2
22/11:18pm 8.9 3.6 6.9 87 0.9 W 24 56 13 30 993.8 993.8 6.0
22/11:17pm 9.1 4.2 6.9 86 1.0 W 22 56 12 30 993.9 993.9 5.8
22/11:00pm 9.2 5.7 7.3 88 0.9 W 15 20 8 11 993.5 993.5 5.4
22/10:30pm 9.5 4.8 7.6 88 0.9 W 22 32 12 17 993.8 993.8 5.0
22/10:23pm 9.6 4.8 7.5 87 1.0 W 22 32 12 17 993.7 993.7 4.8
22/10:00pm 10.1 7.4 9.0 93 0.5 W 13 24 7 13 994.0 994.0 3.2
22/09:48pm 10.4 8.5 9.0 91 0.7 N 9 13 5 7 993.7 993.7 2.4
22/09:32pm 10.8 8.8 8.6 86 1.1 NNW 9 15 5 8 993.8 993.8 2.0
22/09:30pm 10.8 8.3 8.4 85 1.2 N 11 15 6 8 994.0 994.0 2.0
22/09:00pm 10.5 8.2 7.6 82 1.4 N 9 15 5 8 994.2 994.2 1.6
22/08:30pm 9.8 6.7 7.1 83 1.3 NNW 13 15 7 8 994.7 994.7 1.6
22/08:00pm 9.7 6.6 7.1 84 1.2 NW 13 15 7 8 994.6 994.6 1.6
22/07:30pm 10.4 6.2 7.6 83 1.3 NW 19 22 10 12 995.0 995.0 1.6
22/07:00pm 10.6 6.5 7.7 82 1.4 NW 19 22 10 12 994.9 994.9 1.6
22/06:30pm 10.1 6.3 7.7 85 1.2 NW 17 20 9 11 995.1 995.1 1.6
22/06:03pm 10.4 5.4 8.0 85 1.2 W 24 35 13 19 995.5 995.5 1.6
22/06:00pm 10.4 5.0 8.0 85 1.2 W 26 35 14 19 995.6 995.6 1.4
22/05:43pm 11.2 6.3 8.4 83 1.4 W 24 52 13 28 995.7 995.7 1.4
22/05:40pm 11.7 7.5 8.4 80 1.6 WNW 20 52 11 28 995.8 995.8 1.2
22/05:30pm 11.7 8.3 9.3 85 1.2 NW 17 22 9 12 995.1 995.1 0.8
22/05:00pm 12.5 9.1 9.1 80 1.7 WNW 17 22 9 12 994.7 994.7 0.8
22/04:30pm 12.4 8.0 8.9 79 1.8 NW 22 30 12 16 994.9 994.9 0.8
22/04:00pm 12.5 7.7 9.0 79 1.8 NW 24 32 13 17 994.7 994.7 0.8
22/03:30pm 12.9 7.7 9.0 77 2.0 WNW 26 37 14 20 994.9 994.9 0.8
22/03:00pm 12.7 7.2 9.3 80 1.7 WNW 28 39 15 21 995.0 995.0 0.8
22/02:43pm 12.0 5.8 9.2 83 1.4 W 32 52 17 28 995.1 995.1 0.8
22/02:41pm 11.9 5.5 9.3 84 1.3 W 33 52 18 28 995.1 995.1 0.8
22/02:30pm 11.8 3.4 9.0 83 1.4 W 43 57 23 31 995.1 995.1 0.8
22/02:20pm 12.2 3.6 9.0 81 1.6 W 44 83 24 45 995.2 995.2 0.6
22/02:15pm 15.0 6.4 8.0 63 3.5 W 43 83 23 45 994.6 994.6 0.0
22/02:14pm 16.1 7.8 7.8 58 4.2 WNW 41 61 22 33 994.8 994.8 0.0
22/02:07pm 16.6 8.0 8.3 58 4.2 WNW 43 61 23 33 994.2 994.2 0.0
22/02:00pm 17.4 9.0 9.1 58 4.3 WNW 43 56 23 30 994.3 994.3 0.0
22/01:46pm 17.2 10.2 8.6 57 4.4 NW 35 54 19 29 994.2 994.2 0.0
22/01:30pm 17.0 9.0 8.9 59 4.2 NW 41 52 22 28 994.3 994.3 0.0
22/01:00pm 16.5 9.0 9.4 63 3.7 NW 39 57 21 31 994.4 994.4 0.0
22/12:30pm 16.3 7.3 8.8 61 3.8 NW 46 65 25 35 994.4 994.4 0.0
22/12:00pm 16.2 9.1 9.4 64 3.6 NW 37 56 20 30 995.1 995.1 0.0
22/11:33am 15.5 8.0 9.4 67 3.2 NW 39 57 21 31 995.4 995.4 0.0
22/11:30am 15.5 7.6 9.2 66 3.2 NW 41 57 22 31 995.4 995.4 0.0
22/11:00am 15.2 7.6 9.1 67 3.2 NW 39 63 21 34 995.8 995.8 0.0
22/10:32am 15.3 7.6 8.8 65 3.3 NW 39 57 21 31 995.7 995.7 0.0
22/10:30am 15.2 7.9 8.9 66 3.2 NW 37 50 20 27 995.8 995.8 0.0
22/10:00am 15.0 7.6 9.8 71 2.7 NW 39 56 21 30 996.2 996.2 0.0
22/09:35am 15.1 7.9 10.5 74 2.4 NW 39 57 21 31 996.6 996.6 0.0
22/09:30am 15.4 7.8 10.6 73 2.5 NW 41 56 22 30 996.1 996.1 0.0
22/09:21am 15.9 9.9 10.7 71 2.8 NW 33 54 18 29 996.7 996.7 0.0
22/09:00am 16.0 11.1 11.2 73 2.6 NW 28 37 15 20 996.6 996.6 3.0
22/08:30am 15.7 11.3 11.7 77 2.2 NW 26 33 14 18 996.6 996.6 3.0
22/08:00am 16.1 11.1 12.3 78 2.1 NW 30 39 16 21 996.6 996.6 3.0
22/07:30am 16.1 12.0 12.8 81 1.8 NW 26 35 14 19 997.0 997.0 3.0
22/07:00am 16.3 13.0 14.1 87 1.3 NNW 24 33 13 18 997.2 997.2 3.0
22/06:30am 15.7 14.2 15.4 98 0.2 N 17 30 9 16 997.5 997.5 2.8
22/06:00am 15.6 13.2 15.4 99 0.1 N 22 39 12 21 997.5 997.5 2.8
22/05:30am 16.0 12.5 14.5 91 0.9 N 26 35 14 19 997.4 997.4 1.8
22/05:00am 15.5 12.6 14.0 91 0.9 N 22 32 12 17 997.8 997.8 1.2
22/04:30am 16.3 12.7 13.0 81 1.8 N 24 41 13 22 998.3 998.3 0.4
22/04:00am 16.4 11.2 12.9 80 2.0 N 32 46 17 25 999.0 999.1 0.4
22/03:36am 16.2 10.8 12.9 81 1.8 N 33 54 18 29 999.7 999.8 0.4
22/03:30am 16.0 10.8 12.7 81 1.8 N 32 46 17 25 999.8 999.9 0.4
22/03:00am 15.1 10.3 13.0 87 1.2 NNE 30 44 16 24 1000.8 1000.9 0.4
22/02:30am 14.9 9.5 12.9 88 1.1 NNE 33 48 18 26 1001.7 1001.8 0.4
22/02:09am 14.8 9.0 12.7 87 1.2 NNE 35 54 19 29 1002.3 1002.4 0.4
22/02:00am 14.8 9.4 12.7 87 1.2 N 33 50 18 27 1002.3 1002.4 0.4
22/01:32am 14.8 9.4 12.7 87 1.2 N 33 59 18 32 1002.5 1002.6 0.4
22/01:30am 14.7 9.2 12.6 87 1.1 N 33 50 18 27 1002.6 1002.7 0.4
22/01:01am 15.2 8.1 12.2 82 1.6 N 41 63 22 34 1002.9 1003.0 0.4
22/01:00am 15.2 8.1 12.2 82 1.6 N 41 57 22 31 1003.0 1003.1 0.4
22/12:40am 15.7 10.6 11.9 78 2.1 N 30 48 16 26 1003.8 1003.9 0.4
22/12:30am 15.8 11.8 11.8 77 2.2 N 24 41 13 22 1004.2 1004.3 0.4
22/12:00am 15.8 12.5 11.6 76 2.3 N 20 32 11 17 1005.1 1005.2 0.4
 
Date/Time
EST
Temp
°C
App
Temp
°C
Dew
Point
°C
Rel
Hum
%
Delta-T
°C
Wind Press
QNH
hPa
Press
MSL
hPa
Rain since
9am
mm
Dir  Spd
km/h
Gust
km/h
Spd
kts
Gust
kts
21/11:30pm 15.7 12.4 11.5 76 2.3 N 20 35 11 19 1005.6 1005.7 0.4
21/11:00pm 15.2 11.9 11.6 79 1.9 N 20 33 11 18 1006.6 1006.7 0.4
21/10:30pm 14.9 10.2 11.9 82 1.6 NNE 28 35 15 19 1006.5 1006.6 0.4
21/10:16pm 15.0 9.5 11.8 81 1.7 N 32 56 17 30 1006.3 1006.4 0.4
21/10:00pm 14.9 9.8 11.9 82 1.6 NNE 30 43 16 23 1006.6 1006.7 0.4
21/09:30pm 14.4 9.7 11.9 85 1.3 NNE 28 41 15 22 1007.4 1007.5 0.4
21/09:11pm 14.6 9.8 11.7 83 1.6 NNE 28 46 15 25 1007.5 1007.6 0.4
21/09:00pm 14.8 10.0 11.8 82 1.6 NNE 28 41 15 22 1008.3 1008.4 0.4
21/08:30pm 14.4 10.1 11.9 85 1.3 NNE 26 39 14 21 1008.5 1008.6 0.4
21/08:00pm 14.5 10.9 11.8 84 1.5 NNE 22 37 12 20 1009.1 1009.2 0.4
21/07:30pm 14.4 10.7 11.6 83 1.5 NNE 22 32 12 17 1009.3 1009.4 0.4
21/07:00pm 14.2 11.0 11.4 83 1.5 NNE 19 26 10 14 1009.6 1009.7 0.4
21/06:30pm 14.4 11.2 11.4 82 1.6 NNE 19 28 10 15 1010.2 1010.3 0.4
21/06:00pm 14.7 11.3 11.1 79 1.9 NNE 20 28 11 15 1010.1 1010.2 0.4
21/05:30pm 14.9 12.0 11.1 78 2.0 NNE 17 24 9 13 1010.7 1010.8 0.4
21/05:00pm 15.5 12.1 11.3 76 2.3 NNE 20 28 11 15 1010.7 1010.8 0.4

Latest Capital City Observations: Canberra | Sydney | Melbourne | Brisbane | Adelaide | Perth | Hobart | Darwin

Other Formats:

Comma delimited format used in spreadsheet applications
http://www.bom.gov.au/fwo/IDV60901/IDV60901.94865.axf

JavaScript Object Notation format (JSON) in row-major order
http://www.bom.gov.au/fwo/IDV60901/IDV60901.94865.json